Time;durP1;ratioP1;P1;durP2;ratioP2;P2;SDS_P1;SDS_P2;PMS_P1;PMS_P2;Temp;Humidity;BMP_temperature;BMP_pressure;BME280_temperature;BME280_humidity;BME280_pressure;Samples;Min_cycle;Max_cycle;Signal;HPM_P1;HPM_P2
2022/09/29 00:00:25;;;;;;;20.95;11.13;;;;;;;8.82;98.46;99568.63;5114294;28;20386;-58
2022/09/29 00:02:52;;;;;;;22.20;11.38;;;;;;;8.73;99.06;99564.34;5116018;28;20093;-58
2022/09/29 00:05:19;;;;;;;20.17;10.95;;;;;;;8.80;98.98;99567.97;5113675;28;20035;-58
2022/09/29 00:07:46;;;;;;;22.13;11.23;;;;;;;8.77;99.09;99568.31;5114515;28;20135;-58
2022/09/29 00:10:14;;;;;;;19.30;11.20;;;;;;;8.80;99.02;99569.75;5111263;28;20043;-58
2022/09/29 00:12:41;;;;;;;20.75;10.93;;;;;;;8.77;98.45;99565.66;5095581;28;20040;-57
2022/09/29 00:15:08;;;;;;;20.27;11.73;;;;;;;8.77;98.66;99568.31;5099138;28;20046;-58
2022/09/29 00:17:35;;;;;;;19.65;10.95;;;;;;;8.80;98.58;99572.41;5115507;28;20374;-58
2022/09/29 00:20:02;;;;;;;17.95;10.65;;;;;;;8.79;98.54;99568.94;5099665;28;20057;-57
2022/09/29 00:22:29;;;;;;;23.08;11.75;;;;;;;8.76;98.26;99566.63;5113541;28;20050;-58
2022/09/29 00:24:55;;;;;;;22.17;10.30;;;;;;;8.74;98.16;99568.63;5113223;28;20070;-58
2022/09/29 00:27:22;;;;;;;22.50;10.63;;;;;;;8.71;98.31;99568.16;5115537;28;20043;-58
2022/09/29 00:29:49;;;;;;;18.20;10.60;;;;;;;8.67;98.65;99558.91;5113312;28;20055;-58
2022/09/29 00:32:15;;;;;;;19.50;10.23;;;;;;;8.65;98.18;99562.53;5115534;28;20036;-57
2022/09/29 00:34:42;;;;;;;18.85;10.98;;;;;;;8.72;98.20;99561.88;5113204;28;20110;-58
2022/09/29 00:37:09;;;;;;;19.40;10.43;;;;;;;8.55;97.66;99558.44;5115300;28;20048;-57
2022/09/29 00:39:36;;;;;;;18.58;10.88;;;;;;;8.58;98.12;99561.56;5108644;28;20040;-58
2022/09/29 00:42:03;;;;;;;16.75;9.68;;;;;;;8.41;98.28;99552.03;5094575;28;20551;-57
2022/09/29 00:45:10;;;;;;;17.02;9.77;;;;;;;8.54;97.95;99560.28;5103280;28;20043;-58
2022/09/29 00:47:41;;;;;;;17.92;10.00;;;;;;;8.58;97.36;99558.94;5112305;28;20055;-57
2022/09/29 00:50:22;;;;;;;20.55;10.63;;;;;;;8.59;96.73;99557.94;5113650;28;20066;-57
2022/09/29 00:52:54;;;;;;;20.43;10.63;;;;;;;8.58;97.03;99561.56;5076955;27;20036;-58
2022/09/29 00:55:27;;;;;;;16.23;9.88;;;;;;;8.57;96.50;99565.22;5098008;28;20132;-58
2022/09/29 00:58:00;;;;;;;18.52;10.15;;;;;;;8.54;96.57;99564.75;5096036;28;20405;-58
2022/09/29 01:00:27;;;;;;;21.63;10.38;;;;;;;8.47;97.21;99563.75;5114004;28;20036;-57
2022/09/29 01:03:00;;;;;;;18.90;10.35;;;;;;;8.48;97.68;99560.13;5111287;28;21240;-57
2022/09/29 01:05:33;;;;;;;17.85;10.68;;;;;;;8.41;97.25;99570.53;5113307;28;20119;-58
2022/09/29 01:08:22;;;;;;;20.23;10.85;;;;;;;8.37;97.29;99563.94;5112760;28;20047;-57
2022/09/29 01:10:51;;;;;;;20.70;10.98;;;;;;;8.32;97.10;99563.59;5105245;28;20051;-57
2022/09/29 01:13:18;;;;;;;19.90;10.82;;;;;;;8.31;97.23;99567.22;5097490;28;20043;-58
2022/09/29 01:15:45;;;;;;;18.27;10.95;;;;;;;8.25;97.35;99566.91;5114236;28;20408;-57
2022/09/29 01:18:13;;;;;;;17.45;10.52;;;;;;;8.23;97.66;99562.78;5112637;28;20100;-57
2022/09/29 01:21:00;;;;;;;18.83;10.40;;;;;;;8.20;97.70;99565.75;5114323;28;20074;-57
2022/09/29 01:23:53;;;;;;;21.42;11.95;;;;;;;8.16;97.64;99562.63;5110963;28;20040;-57
2022/09/29 01:26:44;;;;;;;19.83;10.55;;;;;;;8.07;98.02;99569.72;5114144;28;20046;-57
2022/09/29 01:29:45;;;;;;;19.30;11.27;;;;;;;7.99;97.49;99564.47;5107033;28;20376;-58
2022/09/29 01:32:52;;;;;;;18.77;10.82;;;;;;;8.05;97.01;99578.81;5112108;28;20052;-57
2022/09/29 01:35:47;;;;;;;21.35;10.40;;;;;;;7.97;97.68;99579.66;5112449;28;20393;-58
2022/09/29 01:41:36;;;;;;;18.83;11.27;;;;;;;8.00;97.95;99571.38;5111066;27;20383;-57
2022/09/29 01:44:23;;;;;;;18.50;10.80;;;;;;;7.98;97.84;99576.00;5107488;28;20075;-56
2022/09/29 01:46:56;;;;;;;19.48;10.55;;;;;;;7.91;98.20;99572.38;5109184;28;20501;-57
2022/09/29 01:49:28;;;;;;;18.15;10.77;;;;;;;7.93;98.14;99574.84;5106721;28;20071;-58
2022/09/29 01:52:18;;;;;;;20.60;10.80;;;;;;;7.97;97.99;99584.13;5070702;28;20052;-57
2022/09/29 01:55:08;;;;;;;19.83;10.73;;;;;;;7.93;97.53;99575.69;5107636;28;20044;-57
2022/09/29 01:57:44;;;;;;;19.90;10.80;;;;;;;7.87;97.91;99574.50;5110885;28;20040;-56
2022/09/29 02:00:14;;;;;;;17.77;10.43;;;;;;;7.88;97.63;99576.19;5108612;28;20570;-57
2022/09/29 02:02:46;;;;;;;19.38;10.63;;;;;;;7.88;97.21;99581.47;5110803;28;20040;-57
2022/09/29 02:05:19;;;;;;;17.20;10.15;;;;;;;7.92;97.08;99575.84;5109527;28;20120;-57
2022/09/29 02:07:47;;;;;;;16.17;10.00;;;;;;;7.84;97.81;99581.94;5110007;28;20489;-57
2022/09/29 02:10:34;;;;;;;21.10;11.02;;;;;;;7.87;97.77;99573.69;5107278;28;20093;-57
2022/09/29 02:13:04;;;;;;;19.60;10.70;;;;;;;7.86;97.61;99585.28;5102580;28;20554;-57
2022/09/29 02:15:35;;;;;;;21.55;10.52;;;;;;;7.87;97.79;99586.91;5110471;28;20101;-57
2022/09/29 02:18:09;;;;;;;19.15;11.02;;;;;;;7.78;98.04;99586.06;5108907;28;20067;-57
2022/09/29 02:20:36;;;;;;;19.23;11.70;;;;;;;7.77;98.57;99591.53;5095787;28;20051;-57
2022/09/29 02:23:03;;;;;;;19.80;10.40;;;;;;;7.78;98.90;99591.34;5100841;28;20036;-57
2022/09/29 02:25:34;;;;;;;22.88;11.07;;;;;;;7.72;99.10;99594.66;5109600;28;20078;-57
2022/09/29 02:28:01;;;;;;;19.63;10.30;;;;;;;7.75;98.02;99589.06;5097077;28;20062;-59
2022/09/29 02:30:28;;;;;;;20.38;10.40;;;;;;;7.71;98.09;99592.19;5089544;28;20044;-57
2022/09/29 02:32:54;;;;;;;19.45;10.43;;;;;;;7.72;99.13;99593.84;5089982;28;20056;-56
2022/09/29 02:35:21;;;;;;;18.25;9.88;;;;;;;7.75;98.64;99589.06;5098046;28;20048;-57
2022/09/29 02:38:10;;;;;;;24.25;10.05;;;;;;;7.76;98.45;99585.41;5110101;28;20043;-57
2022/09/29 02:41:01;;;;;;;20.50;9.70;;;;;;;7.82;99.34;99589.22;5106691;28;20040;-57
2022/09/29 02:43:53;;;;;;;18.00;9.57;;;;;;;7.74;98.90;99590.03;5108579;28;20036;-57
2022/09/29 02:46:52;;;;;;;17.88;9.50;;;;;;;7.77;98.75;99587.06;5107748;28;20048;-57
2022/09/29 02:49:51;;;;;;;16.00;9.32;;;;;;;7.77;98.34;99592.34;5106846;28;20443;-57
2022/09/29 02:52:43;;;;;;;18.20;9.52;;;;;;;7.76;97.79;99589.88;5058704;28;20071;-57
2022/09/29 02:55:18;;;;;;;16.38;9.63;;;;;;;7.76;97.49;99580.13;5076344;28;20090;-56
2022/09/29 02:58:13;;;;;;;15.80;9.15;;;;;;;7.71;98.47;99587.72;5077536;28;20044;-57
2022/09/29 03:00:40;;;;;;;18.40;9.57;;;;;;;7.73;98.91;99584.91;5096059;28;20052;-58
2022/09/29 03:03:07;;;;;;;19.63;9.43;;;;;;;7.70;98.85;99588.72;5092764;28;20052;-57
2022/09/29 03:05:34;;;;;;;20.90;9.23;;;;;;;7.73;99.29;99591.03;5095694;28;20071;-57
2022/09/29 03:08:01;;;;;;;19.90;8.77;;;;;;;7.63;98.70;99588.53;5093819;28;20036;-56
2022/09/29 03:10:27;;;;;;;15.52;8.93;;;;;;;7.72;98.37;99586.75;5094605;28;20036;-57
2022/09/29 03:12:55;;;;;;;15.77;8.48;;;;;;;7.78;96.93;99588.72;5094100;28;20051;-57
2022/09/29 03:15:22;;;;;;;17.90;9.32;;;;;;;7.77;97.35;99580.97;5094010;28;20048;-57
2022/09/29 03:17:49;;;;;;;15.75;8.90;;;;;;;7.76;97.06;99587.22;5094553;28;20036;-57
2022/09/29 03:20:16;;;;;;;18.58;9.02;;;;;;;7.72;96.79;99584.09;5093584;28;20494;-57
2022/09/29 03:22:42;;;;;;;16.27;9.25;;;;;;;7.70;97.71;99586.06;5095456;28;20098;-56
2022/09/29 03:25:11;;;;;;;18.48;8.55;;;;;;;7.73;97.23;99588.41;5094032;28;20044;-57
2022/09/29 03:27:38;;;;;;;17.35;9.52;;;;;;;7.74;97.03;99586.56;5094142;28;20097;-57
2022/09/29 03:30:05;;;;;;;16.77;8.82;;;;;;;7.69;97.30;99585.25;5093739;28;20074;-57
2022/09/29 03:32:32;;;;;;;18.25;9.15;;;;;;;7.65;96.89;99580.47;5094420;28;20046;-57
2022/09/29 03:34:59;;;;;;;17.77;9.40;;;;;;;7.66;97.24;99590.03;5090216;28;20055;-57
2022/09/29 03:37:25;;;;;;;17.85;9.68;;;;;;;7.56;97.72;99586.72;5095431;28;20051;-57
2022/09/29 03:39:52;;;;;;;18.48;9.93;;;;;;;7.61;98.26;99587.06;5086854;28;20045;-56
2022/09/29 03:42:21;;;;;;;16.38;9.70;;;;;;;7.49;98.68;99592.66;5094928;28;20130;-56
2022/09/29 03:44:48;;;;;;;18.42;9.57;;;;;;;7.54;99.15;99597.44;5093242;28;20050;-57
2022/09/29 03:47:15;;;;;;;16.58;9.75;;;;;;;7.54;98.53;99588.69;5095197;28;20066;-57
2022/09/29 03:49:42;;;;;;;16.83;9.73;;;;;;;7.57;98.30;99589.19;5092489;28;20075;-56
2022/09/29 03:52:08;;;;;;;16.88;9.40;;;;;;;7.53;98.50;99597.59;5054313;28;20044;-57
2022/09/29 03:54:35;;;;;;;16.02;9.25;;;;;;;7.59;97.75;99589.84;5091156;28;20089;-56
2022/09/29 03:57:02;;;;;;;19.75;9.30;;;;;;;7.59;97.58;99595.13;5095253;28;20044;-56
2022/09/29 03:59:29;;;;;;;18.17;8.98;;;;;;;7.58;97.15;99590.00;5093260;28;20060;-56
2022/09/29 04:01:56;;;;;;;18.08;9.40;;;;;;;7.59;97.53;99597.78;5090862;28;20052;-57
2022/09/29 04:04:23;;;;;;;16.08;8.98;;;;;;;7.56;96.86;99600.72;5090255;28;20089;-56
2022/09/29 04:06:49;;;;;;;20.73;9.50;;;;;;;7.46;97.52;99600.88;5094709;28;20044;-57
2022/09/29 04:09:16;;;;;;;16.05;9.35;;;;;;;7.46;97.97;99607.97;5092943;28;20064;-58
2022/09/29 04:11:43;;;;;;;17.88;9.60;;;;;;;7.34;98.16;99604.00;5093592;28;20382;-58
2022/09/29 04:14:09;;;;;;;17.67;9.70;;;;;;;7.45;97.73;99601.84;5091844;28;20126;-57
2022/09/29 04:16:36;;;;;;;15.32;9.68;;;;;;;7.45;97.73;99604.50;5091966;28;20036;-57
2022/09/29 04:19:03;;;;;;;17.75;9.57;;;;;;;7.44;97.44;99605.50;5093644;28;20064;-57
2022/09/29 04:21:29;;;;;;;16.40;8.57;;;;;;;7.38;97.93;99605.31;5079917;28;20090;-57
2022/09/29 04:23:56;;;;;;;17.27;9.30;;;;;;;7.38;97.33;99606.13;5073489;28;20048;-56
2022/09/29 04:26:23;;;;;;;16.23;8.90;;;;;;;7.45;97.16;99614.22;5088003;28;20052;-57
2022/09/29 04:28:50;;;;;;;18.83;10.20;;;;;;;7.42;96.75;99611.91;5074046;28;20056;-57
2022/09/29 04:31:17;;;;;;;20.13;9.70;;;;;;;7.44;96.71;99615.22;5088879;28;20048;-57
2022/09/29 04:33:43;;;;;;;22.75;8.95;;;;;;;7.39;97.92;99613.06;5094585;28;20135;-56
2022/09/29 04:36:10;;;;;;;18.25;8.77;;;;;;;7.44;97.08;99616.06;5092243;28;20044;-56
2022/09/29 04:38:37;;;;;;;15.23;8.45;;;;;;;7.46;96.91;99618.53;5092714;28;20068;-57
2022/09/29 04:41:04;;;;;;;17.42;9.07;;;;;;;7.50;96.80;99617.22;5089842;28;20137;-56
2022/09/29 04:43:30;;;;;;;20.17;8.80;;;;;;;7.48;96.78;99620.00;5109946;28;20158;-56
2022/09/29 04:46:02;;;;;;;18.75;9.43;;;;;;;7.43;97.28;99621.50;5091883;28;20040;-57
2022/09/29 04:48:29;;;;;;;19.48;9.45;;;;;;;7.36;97.87;99626.56;5092231;28;20044;-57
2022/09/29 04:50:59;;;;;;;18.13;9.02;;;;;;;7.34;97.94;99625.91;5066250;28;20205;-58
2022/09/29 04:53:26;;;;;;;19.30;9.48;;;;;;;7.36;97.87;99625.75;5081134;28;20397;-55
2022/09/29 04:55:53;;;;;;;20.42;10.13;;;;;;;7.37;97.40;99624.75;5093683;28;20040;-56
2022/09/29 04:58:20;;;;;;;17.13;8.77;;;;;;;7.41;97.61;99631.38;5093508;28;20055;-56
2022/09/29 05:00:47;;;;;;;20.27;8.95;;;;;;;7.37;97.59;99630.03;5089257;28;20040;-56
2022/09/29 05:03:14;;;;;;;16.65;8.77;;;;;;;7.30;97.46;99628.03;5091963;28;20044;-55
2022/09/29 05:05:40;;;;;;;16.83;8.43;;;;;;;7.27;97.09;99627.53;5091670;28;20056;-57
2022/09/29 05:08:07;;;;;;;16.75;9.23;;;;;;;7.29;97.81;99625.56;5093095;28;20048;-56
2022/09/29 05:10:34;;;;;;;14.77;8.70;;;;;;;7.32;97.48;99634.97;5091815;28;20061;-57
2022/09/29 05:13:01;;;;;;;15.00;8.85;;;;;;;7.23;97.61;99639.41;5092087;28;20055;-57
2022/09/29 05:15:27;;;;;;;17.50;9.32;;;;;;;7.29;97.46;99642.25;5091185;28;20482;-57
2022/09/29 05:17:54;;;;;;;18.02;8.80;;;;;;;7.16;97.47;99644.47;5092406;28;20085;-56
2022/09/29 05:20:21;;;;;;;14.45;8.45;;;;;;;7.26;97.42;99650.47;5091949;28;20123;-57
2022/09/29 05:22:47;;;;;;;18.80;9.05;;;;;;;7.21;97.16;99647.47;5093776;28;20054;-56
2022/09/29 05:25:14;;;;;;;18.05;8.93;;;;;;;7.22;96.80;99654.41;5088431;28;20051;-57
2022/09/29 05:27:41;;;;;;;16.45;9.32;;;;;;;7.28;97.01;99651.13;5093333;28;20401;-56
2022/09/29 05:30:08;;;;;;;15.18;8.93;;;;;;;7.27;97.07;99660.00;5090573;28;20040;-57
2022/09/29 05:32:35;;;;;;;17.23;9.05;;;;;;;7.11;97.30;99652.88;5093155;28;20098;-57
2022/09/29 05:35:02;;;;;;;15.52;9.40;;;;;;;7.27;97.75;99659.19;5091465;28;20047;-57
2022/09/29 05:37:28;;;;;;;26.25;9.93;;;;;;;7.26;97.20;99661.00;5089808;28;20059;-57
2022/09/29 05:39:55;;;;;;;17.27;9.40;;;;;;;7.20;97.29;99664.25;5086099;28;20045;-57
2022/09/29 05:42:23;;;;;;;19.08;9.57;;;;;;;7.14;98.26;99669.38;5052710;28;20056;-57
2022/09/29 05:44:49;;;;;;;17.63;8.90;;;;;;;7.16;98.19;99675.31;5091709;28;20074;-57
2022/09/29 05:47:16;;;;;;;18.40;10.52;;;;;;;7.15;98.83;99671.84;5091929;28;20047;-58
2022/09/29 05:49:43;;;;;;;19.92;9.73;;;;;;;7.19;98.54;99669.72;5088933;28;20052;-57
2022/09/29 05:52:10;;;;;;;22.00;10.23;;;;;;;7.15;98.00;99674.50;5054550;28;20036;-57
2022/09/29 05:54:36;;;;;;;19.50;9.68;;;;;;;7.15;98.42;99671.84;5090682;28;20044;-57
2022/09/29 05:57:07;;;;;;;16.75;9.07;;;;;;;7.17;98.40;99671.66;5092967;28;20044;-57
2022/09/29 05:59:35;;;;;;;17.80;9.27;;;;;;;7.17;97.46;99676.94;5091048;28;20123;-57
2022/09/29 06:02:01;;;;;;;15.52;9.07;;;;;;;7.15;97.21;99678.91;5091026;28;21437;-57
2022/09/29 06:04:28;;;;;;;24.83;11.90;;;;;;;7.09;97.97;99673.31;5091056;28;20562;-57
2022/09/29 06:06:56;;;;;;;22.95;14.63;;;;;;;7.11;98.71;99678.41;5090910;28;20046;-58
2022/09/29 06:09:22;;;;;;;25.90;12.27;;;;;;;7.21;98.32;99683.56;5092516;28;20044;-57
2022/09/29 06:11:49;;;;;;;18.20;10.88;;;;;;;7.18;98.71;99679.44;5091843;28;20036;-57
2022/09/29 06:14:16;;;;;;;18.98;10.10;;;;;;;7.06;99.16;99676.25;5090707;28;20046;-56
2022/09/29 06:16:43;;;;;;;16.95;9.70;;;;;;;7.05;99.38;99679.88;5088736;28;20048;-57
2022/09/29 06:19:10;;;;;;;19.75;10.10;;;;;;;7.04;99.85;99682.66;5093132;28;20040;-57
2022/09/29 06:21:38;;;;;;;16.25;9.27;;;;;;;7.21;99.42;99684.41;5080304;28;20040;-57
2022/09/29 06:24:06;;;;;;;16.45;9.77;;;;;;;7.32;98.97;99687.75;5071814;28;20048;-57
2022/09/29 06:26:33;;;;;;;16.25;9.20;;;;;;;7.35;98.85;99692.69;5082083;28;20040;-57
2022/09/29 06:29:02;;;;;;;18.63;9.95;;;;;;;7.40;98.39;99693.03;5096113;28;20105;-57
2022/09/29 06:31:30;;;;;;;15.55;9.23;;;;;;;7.32;98.74;99693.03;5084937;28;20040;-57
2022/09/29 06:34:00;;;;;;;23.65;9.88;;;;;;;7.39;98.94;99702.78;5075878;28;20498;-56
2022/09/29 06:39:19;;;;;;;;;;;;;;;7.18;99.15;99699.72;5092071;28;20044;-56
2022/09/29 06:41:50;;;;;;;22.25;8.93;;;;;;;7.28;99.44;99701.25;5091392;28;19920;-57
2022/09/29 06:44:18;;;;;;;19.38;10.32;;;;;;;7.43;99.59;99704.09;5094426;28;20436;-57
2022/09/29 06:46:45;;;;;;;17.85;9.73;;;;;;;7.51;99.25;99705.94;5096091;28;20048;-57
2022/09/29 06:49:14;;;;;;;17.27;10.10;;;;;;;7.60;99.68;99704.16;5093379;28;20043;-58
2022/09/29 06:51:42;;;;;;;16.83;10.35;;;;;;;7.38;99.67;99708.22;5056760;28;20478;-56
2022/09/29 06:54:15;;;;;;;16.35;9.55;;;;;;;7.46;99.73;99706.44;5093911;28;20048;-56
2022/09/29 06:56:45;;;;;;;20.73;9.80;;;;;;;7.63;99.17;99712.59;5094095;28;20097;-56
2022/09/29 06:59:11;;;;;;;20.00;11.10;;;;;;;7.65;98.84;99713.25;5094333;28;20044;-57
2022/09/29 07:01:39;;;;;;;28.80;10.93;;;;;;;7.66;98.73;99711.47;5094926;28;20044;-59
2022/09/29 07:04:06;;;;;;;16.92;10.23;;;;;;;7.75;99.04;99718.41;5094488;28;20051;-57
2022/09/29 07:06:33;;;;;;;18.88;10.55;;;;;;;7.74;97.77;99716.75;5096015;28;20048;-57
2022/09/29 07:09:00;;;;;;;18.70;10.52;;;;;;;7.63;99.02;99717.88;5070662;28;20075;-57
2022/09/29 07:11:27;;;;;;;18.88;10.85;;;;;;;7.78;98.75;99712.78;5084891;28;20486;-57
2022/09/29 07:13:54;;;;;;;20.52;10.30;;;;;;;7.66;98.55;99717.56;5087064;28;20106;-56
2022/09/29 07:16:22;;;;;;;20.02;10.68;;;;;;;7.64;98.34;99710.78;5095501;28;20043;-57
2022/09/29 07:18:50;;;;;;;21.05;11.07;;;;;;;7.84;97.93;99719.25;5093668;28;20426;-59
2022/09/29 07:21:17;;;;;;;19.73;10.75;;;;;;;7.87;98.33;99711.81;5095253;28;20535;-57
2022/09/29 07:23:46;;;;;;;18.65;11.13;;;;;;;7.82;98.77;99721.22;5075687;28;20127;-60
2022/09/29 07:26:15;;;;;;;21.15;11.60;;;;;;;7.93;99.76;99720.09;5072830;28;20048;-60
2022/09/29 07:28:45;;;;;;;27.10;12.02;;;;;;;7.82;98.67;99711.50;5088628;28;20128;-51
2022/09/29 07:31:14;;;;;;;31.20;13.18;;;;;;;7.82;99.60;99718.59;5082143;28;20052;-61
2022/09/29 07:33:42;;;;;;;33.80;15.80;;;;;;;8.07;98.53;99722.94;5082618;28;20094;-57
2022/09/29 07:36:10;;;;;;;22.85;13.20;;;;;;;8.01;98.85;99725.41;5070398;28;20101;-57
2022/09/29 07:38:37;;;;;;;22.70;12.15;;;;;;;8.14;98.85;99727.56;5081285;28;20044;-57
2022/09/29 07:41:09;;;;;;;21.67;13.00;;;;;;;8.22;98.36;99724.94;5082113;28;20486;-57
2022/09/29 07:43:36;;;;;;;21.63;12.40;;;;;;;8.27;98.04;99728.72;5072298;28;20036;-57
2022/09/29 07:46:04;;;;;;;21.13;13.23;;;;;;;8.45;98.56;99730.44;5068899;28;20485;-57
2022/09/29 07:48:32;;;;;;;20.27;12.88;;;;;;;8.48;98.23;99727.47;5077109;28;20044;-57
2022/09/29 07:51:05;;;;;;;21.33;12.27;;;;;;;8.60;96.08;99733.25;5045559;28;20983;-57
2022/09/29 07:53:35;;;;;;;21.58;12.13;;;;;;;8.61;96.14;99732.25;5062640;28;20044;-57
2022/09/29 07:56:07;;;;;;;24.08;13.05;;;;;;;8.76;97.33;99737.69;5079909;28;20052;-57
2022/09/29 07:58:36;;;;;;;20.98;12.82;;;;;;;8.96;95.74;99735.53;5072586;28;20040;-57
2022/09/29 08:01:09;;;;;;;28.05;17.73;;;;;;;9.01;95.15;99735.84;5081777;28;20097;-56
2022/09/29 08:03:38;;;;;;;23.65;14.13;;;;;;;9.19;94.36;99741.75;5075273;28;20062;-58
2022/09/29 08:06:06;;;;;;;26.50;14.68;;;;;;;9.29;94.62;99754.78;5080689;28;20458;-58
2022/09/29 08:08:35;;;;;;;22.83;13.35;;;;;;;9.47;94.93;99745.81;5068508;28;20054;-57
2022/09/29 08:11:05;;;;;;;22.23;13.07;;;;;;;9.22;92.84;99753.81;5083817;28;20036;-58
2022/09/29 08:13:34;;;;;;;24.02;12.75;;;;;;;9.59;92.32;99761.16;5072375;28;20580;-57
2022/09/29 08:16:03;;;;;;;23.58;12.60;;;;;;;9.56;91.82;99758.03;5062461;28;20468;-56
2022/09/29 08:18:30;;;;;;;24.98;13.13;;;;;;;9.70;91.82;99754.66;5062858;28;20044;-57
2022/09/29 08:20:57;;;;;;;19.35;12.38;;;;;;;9.69;90.08;99762.78;5074127;28;20048;-58
2022/09/29 08:23:24;;;;;;;22.63;13.43;;;;;;;9.71;92.17;99750.19;5076033;28;20139;-57
2022/09/29 08:25:59;;;;;;;21.13;12.68;;;;;;;9.84;92.21;99760.22;5066393;28;20049;-57
2022/09/29 08:28:32;;;;;;;25.23;14.00;;;;;;;9.86;93.06;99764.34;5074221;28;20051;-56
2022/09/29 08:31:06;;;;;;;22.90;13.40;;;;;;;9.91;90.87;99767.28;5079013;28;20591;-58
2022/09/29 08:33:34;;;;;;;50.47;14.63;;;;;;;10.26;89.73;99778.38;5079564;28;20432;-57
2022/09/29 08:36:05;;;;;;;25.33;15.20;;;;;;;10.31;91.27;99780.50;5073795;28;20517;-57
2022/09/29 08:38:31;;;;;;;24.53;13.00;;;;;;;10.47;91.08;99775.09;5070455;28;20070;-57
2022/09/29 08:41:02;;;;;;;24.60;13.77;;;;;;;10.50;91.77;99780.06;5082789;28;20060;-57
2022/09/29 08:43:32;;;;;;;;;;;;;;;10.63;90.11;99778.66;5081292;28;20077;-58
2022/09/29 08:46:10;;;;;;;24.45;13.27;;;;;;;10.53;91.88;99781.53;5082443;28;19928;-57
2022/09/29 08:48:43;;;;;;;26.40;14.85;;;;;;;10.61;91.43;99783.31;5080422;28;20049;-57
2022/09/29 08:51:41;;;;;;;23.83;14.30;;;;;;;10.78;89.89;99787.47;5015917;28;20931;-56
2022/09/29 08:54:20;;;;;;;27.55;13.20;;;;;;;11.12;88.43;99788.84;5075259;28;20509;-58
2022/09/29 08:56:57;;;;;;;25.35;14.65;;;;;;;11.16;88.32;99792.78;5073286;28;20127;-58
2022/09/29 08:59:26;;;;;;;26.88;14.68;;;;;;;11.16;87.73;99797.25;5069561;28;20512;-57
2022/09/29 09:02:05;;;;;;;29.05;14.23;;;;;;;11.42;86.28;99787.00;5070794;28;20127;-58
2022/09/29 09:05:01;;;;;;;27.48;15.55;;;;;;;11.69;85.24;99787.38;5067689;28;20039;-58
2022/09/29 09:07:44;;;;;;;25.85;14.05;;;;;;;12.24;80.67;99793.16;5068080;28;20032;-57
2022/09/29 09:10:46;;;;;;;26.88;14.63;;;;;;;13.35;77.35;99793.56;5074626;28;20080;-58
2022/09/29 09:13:52;;;;;;;32.45;15.30;;;;;;;14.52;70.53;99799.78;5052050;28;20048;-59
2022/09/29 09:16:46;;;;;;;33.22;17.08;;;;;;;16.16;63.49;99801.84;5075911;28;20041;-47
2022/09/29 09:19:42;;;;;;;25.63;12.95;;;;;;;17.22;59.28;99798.44;5070291;28;20046;-44
2022/09/29 09:22:31;;;;;;;22.95;13.63;;;;;;;18.32;56.82;99806.69;5075757;28;20043;-44
2022/09/29 09:25:17;;;;;;;23.20;13.07;;;;;;;18.76;54.38;99808.13;5071642;28;20044;-56
2022/09/29 09:27:53;;;;;;;24.35;12.88;;;;;;;19.70;50.64;99815.41;5069698;28;20068;-56
2022/09/29 09:30:20;;;;;;;29.27;13.48;;;;;;;20.09;50.36;99815.69;5078126;28;20047;-57
2022/09/29 09:32:54;;;;;;;25.65;12.77;;;;;;;19.66;49.04;99819.63;5084835;28;20553;-57
2022/09/29 09:35:45;;;;;;;24.92;13.07;;;;;;;19.69;47.03;99823.72;5080988;28;20048;-58
2022/09/29 09:38:24;;;;;;;23.33;13.18;;;;;;;19.77;49.02;99817.19;5056773;28;20045;-58
2022/09/29 09:40:56;;;;;;;23.95;12.95;;;;;;;20.11;48.98;99813.56;5083610;28;20058;-58
2022/09/29 09:43:30;;;;;;;28.08;14.15;;;;;;;20.21;46.36;99812.97;5073441;28;20053;-57
2022/09/29 09:46:02;;;;;;;25.80;14.57;;;;;;;20.44;47.26;99817.41;5070085;28;20098;-56
2022/09/29 09:48:40;;;;;;;26.15;13.48;;;;;;;20.64;46.61;99817.00;5054239;28;20123;-56
2022/09/29 09:51:41;;;;;;;26.95;14.27;;;;;;;21.33;45.78;99813.25;5041597;28;20040;-56
2022/09/29 09:54:15;;;;;;;33.75;14.05;;;;;;;22.14;43.81;99822.66;5078664;28;20531;-56
2022/09/29 09:57:10;;;;;;;27.77;14.82;;;;;;;21.45;41.17;99822.09;5085129;28;20044;-56
2022/09/29 09:59:51;;;;;;;24.48;13.57;;;;;;;22.57;40.40;99823.69;5070325;28;20041;-55
2022/09/29 10:02:21;;;;;;;22.98;14.30;;;;;;;23.01;39.93;99818.13;5083983;28;20044;-56
2022/09/29 10:04:51;;;;;;;25.77;14.75;;;;;;;23.52;38.22;99829.34;5084985;28;20044;-57
2022/09/29 10:07:19;;;;;;;26.60;14.35;;;;;;;23.91;38.91;99823.59;5061874;28;20059;-57
2022/09/29 10:09:47;;;;;;;25.08;14.50;;;;;;;24.04;37.72;99824.97;5068852;28;20045;-57
2022/09/29 10:12:17;;;;;;;27.98;14.30;;;;;;;24.63;36.38;99822.97;5087112;28;20128;-57
2022/09/29 10:14:51;;;;;;;27.77;13.38;;;;;;;23.31;36.39;99822.16;5087780;28;20102;-57
2022/09/29 10:17:24;;;;;;;28.65;13.82;;;;;;;23.14;36.46;99823.13;5064764;28;20068;-57
2022/09/29 10:19:55;;;;;;;31.17;13.82;;;;;;;23.56;36.79;99825.00;5067877;28;20048;-57
2022/09/29 10:22:24;;;;;;;24.92;13.75;;;;;;;24.45;38.44;99822.41;5081465;28;20068;-57
2022/09/29 10:24:55;;;;;;;31.65;16.08;;;;;;;24.36;38.56;99825.88;5071058;28;20055;-56
2022/09/29 10:27:25;;;;;;;27.23;16.05;;;;;;;25.27;36.14;99830.59;5064717;28;20040;-57
2022/09/29 10:29:53;;;;;;;33.08;15.38;;;;;;;25.46;35.31;99821.88;5081738;28;20637;-57
2022/09/29 10:32:35;;;;;;;35.00;16.42;;;;;;;25.08;33.99;99824.06;5081037;28;20147;-58
2022/09/29 10:35:08;;;;;;;32.00;15.20;;;;;;;25.93;33.37;99828.81;5068082;28;20056;-57
2022/09/29 10:37:37;;;;;;;27.45;15.50;;;;;;;25.48;33.51;99828.63;5088300;28;20067;-57
2022/09/29 10:42:45;;;;;;;28.75;16.15;;;;;;;25.17;34.50;99821.63;5068830;28;20756;-58
2022/09/29 10:45:19;;;;;;;26.08;15.38;;;;;;;24.77;35.42;99829.50;5052633;28;20040;-58
2022/09/29 10:50:50;;;;;;;34.80;15.65;;;;;;;23.22;38.23;99827.22;5105816;27;20358;-58
2022/09/29 10:53:28;;;;;;;35.20;15.18;;;;;;;22.21;38.32;99829.53;5090024;28;20118;-58
2022/09/29 10:55:57;;;;;;;28.75;14.48;;;;;;;21.12;41.69;99825.63;5118549;28;20047;-58
2022/09/29 10:58:34;;;;;;;27.88;13.52;;;;;;;21.89;41.29;99837.50;5118790;28;20092;-58
2022/09/29 11:01:13;;;;;;;29.95;15.23;;;;;;;21.90;41.22;99832.91;5112525;27;20039;-58
2022/09/29 11:03:49;;;;;;;26.97;14.80;;;;;;;21.97;40.42;99831.66;5112620;28;20511;-58
2022/09/29 11:06:26;;;;;;;24.23;11.93;;;;;;;22.11;36.04;99839.38;5115578;28;20126;-58
2022/09/29 11:09:00;;;;;;;23.88;11.88;;;;;;;22.79;36.23;99837.97;5108816;28;20050;-58
2022/09/29 11:11:31;;;;;;;25.83;12.57;;;;;;;22.89;35.60;99842.63;5118665;27;20052;-58
2022/09/29 11:13:58;;;;;;;21.45;12.60;;;;;;;23.15;35.82;99843.69;5112867;28;20044;-57
2022/09/29 11:16:34;;;;;;;24.13;13.25;;;;;;;24.02;34.52;99837.16;5110568;27;20040;-58
2022/09/29 11:19:06;;;;;;;28.05;12.50;;;;;;;23.73;36.19;99841.06;5104853;28;20109;-58
2022/09/29 11:22:04;;;;;;;25.60;12.00;;;;;;;22.81;36.71;99835.81;5119615;27;20495;-59
2022/09/29 11:24:57;;;;;;;20.58;9.65;;;;;;;20.92;38.61;99836.88;5095455;28;20131;-59
2022/09/29 11:28:04;;;;;;;24.15;10.20;;;;;;;20.89;38.64;99834.66;5104210;28;20051;-58
2022/09/29 11:31:10;;;;;;;23.42;11.27;;;;;;;19.83;40.73;99840.44;5117779;28;20050;-58
2022/09/29 11:34:04;;;;;;;29.25;11.85;;;;;;;19.82;41.55;99839.63;5104087;28;20074;-57
2022/09/29 11:36:44;;;;;;;22.05;11.00;;;;;;;18.89;41.38;99838.56;5111604;28;20044;-58
2022/09/29 11:39:39;;;;;;;18.02;9.95;;;;;;;18.31;43.70;99845.34;5094682;28;20035;-58
2022/09/29 11:42:22;;;;;;;23.15;10.25;;;;;;;18.69;44.56;99839.63;5108980;28;20054;-58
2022/09/29 11:44:58;;;;;;;19.05;9.23;;;;;;;19.30;42.00;99852.97;5110914;28;20044;-58
2022/09/29 11:53:04;;;;;;;22.20;10.60;;;;;;;18.01;44.78;99854.19;5025678;28;20377;-58
2022/09/29 11:55:48;;;;;;;22.90;10.15;;;;;;;17.56;47.15;99849.06;5039262;28;20095;-58
2022/09/29 11:58:44;;;;;;;25.02;11.63;;;;;;;17.25;46.33;99850.78;5046391;28;20045;-58
2022/09/29 12:01:43;;;;;;;26.23;10.93;;;;;;;16.26;50.41;99845.00;5042734;28;20395;-57
2022/09/29 12:04:27;;;;;;;18.00;9.13;;;;;;;15.26;50.64;99851.41;5045205;28;20049;-57
2022/09/29 12:07:20;;;;;;;17.25;8.70;;;;;;;15.49;51.62;99848.28;5054586;28;20056;-57
2022/09/29 12:10:15;;;;;;;16.95;8.50;;;;;;;15.28;51.49;99848.53;5045193;28;20593;-57